Concord, Illinois
Current Conditions -  °F | °C
As of 10:55 AM on Monday 22 Dec 2014 (Local Time) from KIJX Reporting Station
Light Rain Light Rain  
Wind Chill: 35°   Ceiling: 400
Heat Index: 42°   Visibility: 3mi
Dew Point: 40°   Wind: 13mph
Humidity: 92%   Direction: 140°SE
Pressure: 29.69"   Gusts: 18mph
Location:  39.82°N, 90.37°W
Report Text: KIJX 221655Z AUTO 14011G16KT 3SM -RA OVC004 06/04 A2969 RMK AO2 P0008 T00550043
Loading
Personal Weather Stations






























Interactive Weather Map New forecast layout! Learn more

10-Day Weather Forecast

Advertisements
Track Severe Weather on mobile